sensor_id;sensor_type;location;lat;lon;timestamp;P1;durP1;ratioP1;P2;durP2;ratioP2
23123;SDS011;11731;48.592;8.858;2024-02-26T00:03:44;3.90;;;2.87;;
23123;SDS011;11731;48.592;8.858;2024-02-26T00:08:01;2.77;;;1.83;;
23123;SDS011;11731;48.592;8.858;2024-02-26T00:10:31;3.13;;;2.00;;
23123;SDS011;11731;48.592;8.858;2024-02-26T00:12:58;3.03;;;1.67;;
23123;SDS011;11731;48.592;8.858;2024-02-26T00:15:34;2.63;;;2.03;;
23123;SDS011;11731;48.592;8.858;2024-02-26T00:18:01;4.00;;;2.70;;
23123;SDS011;11731;48.592;8.858;2024-02-26T00:20:28;4.17;;;2.80;;
23123;SDS011;11731;48.592;8.858;2024-02-26T00:22:55;3.57;;;2.37;;
23123;SDS011;11731;48.592;8.858;2024-02-26T00:28:34;1.60;;;1.50;;
23123;SDS011;11731;48.592;8.858;2024-02-26T00:31:01;2.23;;;1.70;;
23123;SDS011;11731;48.592;8.858;2024-02-26T00:33:40;2.60;;;1.80;;
23123;SDS011;11731;48.592;8.858;2024-02-26T00:36:07;2.50;;;1.90;;
23123;SDS011;11731;48.592;8.858;2024-02-26T00:38:34;2.27;;;2.00;;
23123;SDS011;11731;48.592;8.858;2024-02-26T00:41:01;4.63;;;1.83;;
23123;SDS011;11731;48.592;8.858;2024-02-26T00:43:28;3.23;;;1.73;;
23123;SDS011;11731;48.592;8.858;2024-02-26T00:45:57;3.50;;;2.07;;
23123;SDS011;11731;48.592;8.858;2024-02-26T00:48:24;1.87;;;1.63;;
23123;SDS011;11731;48.592;8.858;2024-02-26T00:51:07;3.13;;;2.20;;
23123;SDS011;11731;48.592;8.858;2024-02-26T00:54:11;2.57;;;1.83;;
23123;SDS011;11731;48.592;8.858;2024-02-26T00:56:34;2.20;;;1.80;;
23123;SDS011;11731;48.592;8.858;2024-02-26T00:59:04;3.23;;;1.80;;
23123;SDS011;11731;48.592;8.858;2024-02-26T01:01:32;2.60;;;1.90;;
23123;SDS011;11731;48.592;8.858;2024-02-26T01:04:00;1.97;;;1.57;;
23123;SDS011;11731;48.592;8.858;2024-02-26T01:06:26;2.83;;;1.87;;
23123;SDS011;11731;48.592;8.858;2024-02-26T01:08:53;1.50;;;1.10;;
23123;SDS011;11731;48.592;8.858;2024-02-26T01:11:20;1.43;;;1.10;;
23123;SDS011;11731;48.592;8.858;2024-02-26T01:13:47;1.43;;;1.30;;
23123;SDS011;11731;48.592;8.858;2024-02-26T01:16:22;2.27;;;1.40;;
23123;SDS011;11731;48.592;8.858;2024-02-26T01:18:50;1.30;;;1.10;;
23123;SDS011;11731;48.592;8.858;2024-02-26T01:21:22;1.20;;;1.10;;
23123;SDS011;11731;48.592;8.858;2024-02-26T01:23:49;2.03;;;1.20;;
23123;SDS011;11731;48.592;8.858;2024-02-26T01:26:16;1.10;;;1.00;;
23123;SDS011;11731;48.592;8.858;2024-02-26T01:28:42;1.60;;;1.27;;
23123;SDS011;11731;48.592;8.858;2024-02-26T01:31:09;1.40;;;1.23;;
23123;SDS011;11731;48.592;8.858;2024-02-26T01:33:36;1.23;;;1.10;;
23123;SDS011;11731;48.592;8.858;2024-02-26T01:36:13;1.43;;;1.33;;
23123;SDS011;11731;48.592;8.858;2024-02-26T01:38:42;1.60;;;1.40;;
23123;SDS011;11731;48.592;8.858;2024-02-26T01:41:09;1.87;;;1.40;;
23123;SDS011;11731;48.592;8.858;2024-02-26T01:43:36;4.20;;;1.50;;
23123;SDS011;11731;48.592;8.858;2024-02-26T01:46:03;1.60;;;1.33;;
23123;SDS011;11731;48.592;8.858;2024-02-26T01:48:30;2.07;;;1.57;;
23123;SDS011;11731;48.592;8.858;2024-02-26T01:50:57;1.87;;;1.50;;
23123;SDS011;11731;48.592;8.858;2024-02-26T01:53:25;1.97;;;1.40;;
23123;SDS011;11731;48.592;8.858;2024-02-26T01:55:58;1.83;;;1.33;;
23123;SDS011;11731;48.592;8.858;2024-02-26T01:58:25;1.87;;;1.50;;
23123;SDS011;11731;48.592;8.858;2024-02-26T02:00:52;1.47;;;1.30;;
23123;SDS011;11731;48.592;8.858;2024-02-26T02:03:19;1.53;;;1.40;;
23123;SDS011;11731;48.592;8.858;2024-02-26T02:05:46;1.43;;;1.33;;
23123;SDS011;11731;48.592;8.858;2024-02-26T02:08:13;1.37;;;1.00;;
23123;SDS011;11731;48.592;8.858;2024-02-26T02:10:42;2.00;;;1.23;;
23123;SDS011;11731;48.592;8.858;2024-02-26T02:13:09;1.50;;;1.40;;
23123;SDS011;11731;48.592;8.858;2024-02-26T02:15:36;1.70;;;1.27;;
23123;SDS011;11731;48.592;8.858;2024-02-26T02:18:33;1.20;;;1.10;;
23123;SDS011;11731;48.592;8.858;2024-02-26T02:24:03;2.37;;;1.50;;
23123;SDS011;11731;48.592;8.858;2024-02-26T02:26:30;1.83;;;1.50;;
23123;SDS011;11731;48.592;8.858;2024-02-26T02:28:57;1.50;;;1.40;;
23123;SDS011;11731;48.592;8.858;2024-02-26T02:31:25;2.17;;;1.60;;
23123;SDS011;11731;48.592;8.858;2024-02-26T02:33:54;1.70;;;1.30;;
23123;SDS011;11731;48.592;8.858;2024-02-26T02:36:22;1.50;;;1.40;;
23123;SDS011;11731;48.592;8.858;2024-02-26T02:38:49;2.37;;;1.20;;
23123;SDS011;11731;48.592;8.858;2024-02-26T02:41:25;2.43;;;1.30;;
23123;SDS011;11731;48.592;8.858;2024-02-26T02:43:59;2.37;;;1.33;;
23123;SDS011;11731;48.592;8.858;2024-02-26T02:49:07;1.57;;;1.00;;
23123;SDS011;11731;48.592;8.858;2024-02-26T02:54:22;1.17;;;1.03;;
23123;SDS011;11731;48.592;8.858;2024-02-26T02:57:05;1.10;;;1.00;;
23123;SDS011;11731;48.592;8.858;2024-02-26T03:02:50;2.27;;;1.70;;
23123;SDS011;11731;48.592;8.858;2024-02-26T03:08:23;3.33;;;1.70;;
23123;SDS011;11731;48.592;8.858;2024-02-26T03:10:50;1.70;;;1.57;;
23123;SDS011;11731;48.592;8.858;2024-02-26T03:13:21;1.83;;;1.53;;
23123;SDS011;11731;48.592;8.858;2024-02-26T03:15:48;2.10;;;1.60;;
23123;SDS011;11731;48.592;8.858;2024-02-26T03:18:17;1.50;;;1.40;;
23123;SDS011;11731;48.592;8.858;2024-02-26T03:45:34;2.03;;;1.40;;
23123;SDS011;11731;48.592;8.858;2024-02-26T03:51:38;2.23;;;1.40;;
23123;SDS011;11731;48.592;8.858;2024-02-26T03:53:47;2.13;;;1.30;;
23123;SDS011;11731;48.592;8.858;2024-02-26T03:56:19;1.13;;;1.03;;
23123;SDS011;11731;48.592;8.858;2024-02-26T03:58:46;1.53;;;1.20;;
23123;SDS011;11731;48.592;8.858;2024-02-26T04:01:23;1.20;;;1.10;;
23123;SDS011;11731;48.592;8.858;2024-02-26T04:04:28;1.77;;;1.40;;
23123;SDS011;11731;48.592;8.858;2024-02-26T04:06:55;1.70;;;1.40;;
23123;SDS011;11731;48.592;8.858;2024-02-26T04:12:42;1.40;;;1.03;;
23123;SDS011;11731;48.592;8.858;2024-02-26T04:15:09;1.93;;;1.33;;
23123;SDS011;11731;48.592;8.858;2024-02-26T04:17:52;1.47;;;1.30;;
23123;SDS011;11731;48.592;8.858;2024-02-26T04:20:43;1.27;;;1.00;;
23123;SDS011;11731;48.592;8.858;2024-02-26T04:26:20;1.10;;;1.10;;
23123;SDS011;11731;48.592;8.858;2024-02-26T04:29:09;1.50;;;1.23;;
23123;SDS011;11731;48.592;8.858;2024-02-26T04:31:37;0.93;;;0.90;;
23123;SDS011;11731;48.592;8.858;2024-02-26T04:37:14;1.30;;;1.10;;
23123;SDS011;11731;48.592;8.858;2024-02-26T04:39:41;1.83;;;1.20;;
23123;SDS011;11731;48.592;8.858;2024-02-26T04:42:08;1.40;;;1.30;;
23123;SDS011;11731;48.592;8.858;2024-02-26T04:50:20;2.97;;;1.90;;
23123;SDS011;11731;48.592;8.858;2024-02-26T04:52:49;2.10;;;1.77;;
23123;SDS011;11731;48.592;8.858;2024-02-26T04:55:21;2.23;;;1.70;;
23123;SDS011;11731;48.592;8.858;2024-02-26T04:58:24;2.50;;;1.60;;
23123;SDS011;11731;48.592;8.858;2024-02-26T05:00:42;2.20;;;1.57;;
23123;SDS011;11731;48.592;8.858;2024-02-26T05:05:45;1.73;;;1.60;;
23123;SDS011;11731;48.592;8.858;2024-02-26T05:07:00;1.83;;;1.43;;
23123;SDS011;11731;48.592;8.858;2024-02-26T05:09:29;3.53;;;1.53;;
23123;SDS011;11731;48.592;8.858;2024-02-26T05:14:43;1.40;;;1.30;;
23123;SDS011;11731;48.592;8.858;2024-02-26T05:17:42;1.93;;;1.50;;
23123;SDS011;11731;48.592;8.858;2024-02-26T05:20:23;1.97;;;1.50;;
23123;SDS011;11731;48.592;8.858;2024-02-26T05:22:50;2.73;;;1.50;;
23123;SDS011;11731;48.592;8.858;2024-02-26T05:25:18;1.97;;;1.50;;
23123;SDS011;11731;48.592;8.858;2024-02-26T05:31:18;1.67;;;1.40;;
23123;SDS011;11731;48.592;8.858;2024-02-26T05:34:23;2.63;;;1.67;;
23123;SDS011;11731;48.592;8.858;2024-02-26T05:36:50;2.27;;;1.60;;
23123;SDS011;11731;48.592;8.858;2024-02-26T05:39:17;2.30;;;1.73;;
23123;SDS011;11731;48.592;8.858;2024-02-26T05:45:05;2.53;;;2.03;;
23123;SDS011;11731;48.592;8.858;2024-02-26T05:47:32;2.43;;;1.77;;
23123;SDS011;11731;48.592;8.858;2024-02-26T05:51:02;2.13;;;1.90;;
23123;SDS011;11731;48.592;8.858;2024-02-26T05:53:18;2.07;;;1.50;;
23123;SDS011;11731;48.592;8.858;2024-02-26T05:55:54;2.67;;;1.93;;
23123;SDS011;11731;48.592;8.858;2024-02-26T05:58:21;1.93;;;1.60;;
23123;SDS011;11731;48.592;8.858;2024-02-26T06:00:49;2.90;;;1.73;;
23123;SDS011;11731;48.592;8.858;2024-02-26T06:03:16;3.57;;;1.50;;
23123;SDS011;11731;48.592;8.858;2024-02-26T06:05:43;2.17;;;1.67;;
23123;SDS011;11731;48.592;8.858;2024-02-26T06:08:10;1.43;;;1.33;;
23123;SDS011;11731;48.592;8.858;2024-02-26T06:10:37;2.13;;;1.40;;
23123;SDS011;11731;48.592;8.858;2024-02-26T06:13:04;1.50;;;1.40;;
23123;SDS011;11731;48.592;8.858;2024-02-26T06:16:13;1.53;;;1.43;;
23123;SDS011;11731;48.592;8.858;2024-02-26T06:21:58;5.03;;;2.17;;
23123;SDS011;11731;48.592;8.858;2024-02-26T06:31:24;2.40;;;1.80;;
23123;SDS011;11731;48.592;8.858;2024-02-26T06:33:52;2.10;;;1.80;;
23123;SDS011;11731;48.592;8.858;2024-02-26T06:36:35;4.13;;;1.80;;
23123;SDS011;11731;48.592;8.858;2024-02-26T06:39:02;2.50;;;1.73;;
23123;SDS011;11731;48.592;8.858;2024-02-26T06:41:43;2.80;;;1.63;;
23123;SDS011;11731;48.592;8.858;2024-02-26T06:44:25;2.20;;;1.83;;
23123;SDS011;11731;48.592;8.858;2024-02-26T06:50:23;2.07;;;1.43;;
23123;SDS011;11731;48.592;8.858;2024-02-26T06:52:58;2.17;;;1.83;;
23123;SDS011;11731;48.592;8.858;2024-02-26T06:56:00;2.97;;;2.07;;
23123;SDS011;11731;48.592;8.858;2024-02-26T07:08:22;1.87;;;1.77;;
23123;SDS011;11731;48.592;8.858;2024-02-26T07:10:50;2.47;;;1.90;;
23123;SDS011;11731;48.592;8.858;2024-02-26T07:13:17;2.37;;;1.90;;
23123;SDS011;11731;48.592;8.858;2024-02-26T07:22:14;3.93;;;2.30;;
23123;SDS011;11731;48.592;8.858;2024-02-26T07:24:43;2.50;;;2.10;;
23123;SDS011;11731;48.592;8.858;2024-02-26T07:28:16;2.57;;;2.03;;
23123;SDS011;11731;48.592;8.858;2024-02-26T07:30:29;5.77;;;2.60;;
23123;SDS011;11731;48.592;8.858;2024-02-26T07:33:15;5.13;;;2.10;;
23123;SDS011;11731;48.592;8.858;2024-02-26T07:35:42;5.77;;;2.00;;
23123;SDS011;11731;48.592;8.858;2024-02-26T07:38:18;2.63;;;2.00;;
23123;SDS011;11731;48.592;8.858;2024-02-26T07:40:46;2.50;;;2.20;;
23123;SDS011;11731;48.592;8.858;2024-02-26T07:43:13;2.20;;;1.93;;
23123;SDS011;11731;48.592;8.858;2024-02-26T07:45:40;2.30;;;1.93;;
23123;SDS011;11731;48.592;8.858;2024-02-26T07:48:15;4.43;;;3.57;;
23123;SDS011;11731;48.592;8.858;2024-02-26T07:50:42;4.40;;;3.07;;
23123;SDS011;11731;48.592;8.858;2024-02-26T07:53:09;4.17;;;3.30;;
23123;SDS011;11731;48.592;8.858;2024-02-26T07:55:36;3.20;;;2.90;;
23123;SDS011;11731;48.592;8.858;2024-02-26T08:01:43;2.83;;;2.33;;
23123;SDS011;11731;48.592;8.858;2024-02-26T08:04:15;3.17;;;2.20;;
23123;SDS011;11731;48.592;8.858;2024-02-26T08:07:06;5.43;;;2.40;;
23123;SDS011;11731;48.592;8.858;2024-02-26T08:10:06;4.70;;;2.83;;
23123;SDS011;11731;48.592;8.858;2024-02-26T08:12:23;2.97;;;2.60;;
23123;SDS011;11731;48.592;8.858;2024-02-26T08:14:50;3.33;;;2.47;;
23123;SDS011;11731;48.592;8.858;2024-02-26T08:17:19;3.07;;;2.67;;
23123;SDS011;11731;48.592;8.858;2024-02-26T08:23:39;2.90;;;2.57;;
23123;SDS011;11731;48.592;8.858;2024-02-26T08:28:14;5.60;;;2.90;;
23123;SDS011;11731;48.592;8.858;2024-02-26T08:29:38;2.83;;;2.20;;
23123;SDS011;11731;48.592;8.858;2024-02-26T08:42:04;2.60;;;1.97;;
23123;SDS011;11731;48.592;8.858;2024-02-26T08:48:06;3.40;;;1.80;;
23123;SDS011;11731;48.592;8.858;2024-02-26T08:50:33;3.50;;;1.80;;
23123;SDS011;11731;48.592;8.858;2024-02-26T08:53:00;3.43;;;1.70;;
23123;SDS011;11731;48.592;8.858;2024-02-26T08:55:29;1.93;;;1.80;;
23123;SDS011;11731;48.592;8.858;2024-02-26T08:57:57;4.47;;;1.90;;
23123;SDS011;11731;48.592;8.858;2024-02-26T09:00:24;3.67;;;1.90;;
23123;SDS011;11731;48.592;8.858;2024-02-26T09:02:50;4.13;;;1.67;;
23123;SDS011;11731;48.592;8.858;2024-02-26T09:05:17;2.10;;;1.90;;
23123;SDS011;11731;48.592;8.858;2024-02-26T09:07:44;2.47;;;1.90;;
23123;SDS011;11731;48.592;8.858;2024-02-26T09:10:12;2.40;;;2.00;;
23123;SDS011;11731;48.592;8.858;2024-02-26T09:12:39;2.70;;;2.10;;
23123;SDS011;11731;48.592;8.858;2024-02-26T09:15:08;2.47;;;1.80;;
23123;SDS011;11731;48.592;8.858;2024-02-26T09:17:36;3.80;;;1.67;;
23123;SDS011;11731;48.592;8.858;2024-02-26T09:20:03;1.50;;;1.37;;
23123;SDS011;11731;48.592;8.858;2024-02-26T09:22:34;1.70;;;1.30;;
23123;SDS011;11731;48.592;8.858;2024-02-26T09:25:03;1.53;;;1.30;;
23123;SDS011;11731;48.592;8.858;2024-02-26T09:27:30;2.40;;;1.43;;
23123;SDS011;11731;48.592;8.858;2024-02-26T09:29:57;1.70;;;1.30;;
23123;SDS011;11731;48.592;8.858;2024-02-26T09:32:25;1.50;;;1.30;;
23123;SDS011;11731;48.592;8.858;2024-02-26T09:34:52;4.17;;;1.67;;
23123;SDS011;11731;48.592;8.858;2024-02-26T09:37:19;1.47;;;1.37;;
23123;SDS011;11731;48.592;8.858;2024-02-26T09:39:46;2.67;;;1.40;;
23123;SDS011;11731;48.592;8.858;2024-02-26T09:42:12;1.67;;;1.47;;
23123;SDS011;11731;48.592;8.858;2024-02-26T09:44:40;2.73;;;1.67;;
23123;SDS011;11731;48.592;8.858;2024-02-26T09:47:07;1.70;;;1.40;;
23123;SDS011;11731;48.592;8.858;2024-02-26T09:49:39;1.83;;;1.10;;
23123;SDS011;11731;48.592;8.858;2024-02-26T09:52:07;1.33;;;1.20;;
23123;SDS011;11731;48.592;8.858;2024-02-26T09:54:35;3.50;;;1.10;;
23123;SDS011;11731;48.592;8.858;2024-02-26T09:57:02;1.33;;;1.03;;
23123;SDS011;11731;48.592;8.858;2024-02-26T09:59:31;0.93;;;0.83;;
23123;SDS011;11731;48.592;8.858;2024-02-26T10:02:05;1.67;;;1.10;;
23123;SDS011;11731;48.592;8.858;2024-02-26T10:04:35;2.80;;;1.07;;
23123;SDS011;11731;48.592;8.858;2024-02-26T10:07:04;2.77;;;1.20;;
23123;SDS011;11731;48.592;8.858;2024-02-26T10:09:33;1.50;;;1.13;;
23123;SDS011;11731;48.592;8.858;2024-02-26T10:12:00;1.33;;;1.00;;
23123;SDS011;11731;48.592;8.858;2024-02-26T10:14:27;1.97;;;1.30;;
23123;SDS011;11731;48.592;8.858;2024-02-26T10:16:54;1.40;;;1.20;;
23123;SDS011;11731;48.592;8.858;2024-02-26T10:19:24;2.20;;;1.20;;
23123;SDS011;11731;48.592;8.858;2024-02-26T10:21:54;2.73;;;1.20;;
23123;SDS011;11731;48.592;8.858;2024-02-26T10:24:24;1.40;;;1.20;;
23123;SDS011;11731;48.592;8.858;2024-02-26T10:26:51;1.47;;;1.10;;
23123;SDS011;11731;48.592;8.858;2024-02-26T10:29:19;2.53;;;1.60;;
23123;SDS011;11731;48.592;8.858;2024-02-26T10:31:47;1.80;;;1.50;;
23123;SDS011;11731;48.592;8.858;2024-02-26T10:34:16;1.40;;;1.30;;
23123;SDS011;11731;48.592;8.858;2024-02-26T10:36:44;1.97;;;1.30;;
23123;SDS011;11731;48.592;8.858;2024-02-26T10:39:13;1.40;;;1.20;;
23123;SDS011;11731;48.592;8.858;2024-02-26T10:41:42;1.80;;;1.30;;
23123;SDS011;11731;48.592;8.858;2024-02-26T10:44:11;1.27;;;1.10;;
23123;SDS011;11731;48.592;8.858;2024-02-26T10:46:38;2.00;;;1.50;;
23123;SDS011;11731;48.592;8.858;2024-02-26T10:49:12;1.40;;;1.20;;
23123;SDS011;11731;48.592;8.858;2024-02-26T10:51:44;1.93;;;1.00;;
23123;SDS011;11731;48.592;8.858;2024-02-26T10:54:12;1.40;;;1.10;;
23123;SDS011;11731;48.592;8.858;2024-02-26T10:56:43;1.33;;;1.03;;
23123;SDS011;11731;48.592;8.858;2024-02-26T10:59:13;1.13;;;1.03;;
23123;SDS011;11731;48.592;8.858;2024-02-26T11:01:45;1.03;;;0.93;;
23123;SDS011;11731;48.592;8.858;2024-02-26T11:04:14;1.20;;;1.10;;
23123;SDS011;11731;48.592;8.858;2024-02-26T11:06:43;1.70;;;1.00;;
23123;SDS011;11731;48.592;8.858;2024-02-26T11:09:11;1.93;;;1.10;;
23123;SDS011;11731;48.592;8.858;2024-02-26T11:11:39;1.40;;;1.30;;
23123;SDS011;11731;48.592;8.858;2024-02-26T11:14:09;1.07;;;0.93;;
23123;SDS011;11731;48.592;8.858;2024-02-26T11:16:39;3.33;;;1.07;;
23123;SDS011;11731;48.592;8.858;2024-02-26T11:19:08;1.83;;;1.20;;
23123;SDS011;11731;48.592;8.858;2024-02-26T11:21:36;1.10;;;1.00;;
23123;SDS011;11731;48.592;8.858;2024-02-26T11:24:07;1.03;;;0.83;;
23123;SDS011;11731;48.592;8.858;2024-02-26T11:26:38;1.40;;;1.10;;
23123;SDS011;11731;48.592;8.858;2024-02-26T11:29:15;2.30;;;1.03;;
23123;SDS011;11731;48.592;8.858;2024-02-26T11:31:45;1.63;;;1.00;;
23123;SDS011;11731;48.592;8.858;2024-02-26T11:34:13;1.20;;;0.90;;
23123;SDS011;11731;48.592;8.858;2024-02-26T11:36:40;1.10;;;1.00;;
23123;SDS011;11731;48.592;8.858;2024-02-26T11:39:11;0.97;;;0.80;;
23123;SDS011;11731;48.592;8.858;2024-02-26T11:41:41;1.10;;;1.00;;
23123;SDS011;11731;48.592;8.858;2024-02-26T11:44:09;1.30;;;1.00;;
23123;SDS011;11731;48.592;8.858;2024-02-26T11:46:42;1.10;;;1.00;;
23123;SDS011;11731;48.592;8.858;2024-02-26T11:51:57;1.17;;;1.07;;
23123;SDS011;11731;48.592;8.858;2024-02-26T11:57:23;1.37;;;1.27;;
23123;SDS011;11731;48.592;8.858;2024-02-26T11:59:52;1.80;;;1.30;;
23123;SDS011;11731;48.592;8.858;2024-02-26T12:05:14;1.53;;;1.20;;
23123;SDS011;11731;48.592;8.858;2024-02-26T12:07:43;1.13;;;1.00;;
23123;SDS011;11731;48.592;8.858;2024-02-26T12:13:02;1.40;;;1.10;;
23123;SDS011;11731;48.592;8.858;2024-02-26T12:15:36;3.30;;;1.57;;
23123;SDS011;11731;48.592;8.858;2024-02-26T12:18:06;1.13;;;0.97;;
23123;SDS011;11731;48.592;8.858;2024-02-26T12:20:35;1.20;;;1.03;;
23123;SDS011;11731;48.592;8.858;2024-02-26T12:23:03;2.93;;;1.20;;
23123;SDS011;11731;48.592;8.858;2024-02-26T12:25:31;2.33;;;1.10;;
23123;SDS011;11731;48.592;8.858;2024-02-26T12:27:59;1.73;;;0.97;;
23123;SDS011;11731;48.592;8.858;2024-02-26T12:30:26;1.70;;;1.17;;
23123;SDS011;11731;48.592;8.858;2024-02-26T12:32:56;2.90;;;1.20;;
23123;SDS011;11731;48.592;8.858;2024-02-26T12:35:27;2.87;;;1.17;;
23123;SDS011;11731;48.592;8.858;2024-02-26T12:37:57;1.20;;;1.10;;
23123;SDS011;11731;48.592;8.858;2024-02-26T12:40:25;1.20;;;1.10;;
23123;SDS011;11731;48.592;8.858;2024-02-26T12:42:53;1.83;;;1.23;;
23123;SDS011;11731;48.592;8.858;2024-02-26T12:45:20;2.23;;;1.20;;
23123;SDS011;11731;48.592;8.858;2024-02-26T12:47:47;1.40;;;1.30;;
23123;SDS011;11731;48.592;8.858;2024-02-26T12:50:15;2.40;;;1.47;;
23123;SDS011;11731;48.592;8.858;2024-02-26T12:52:47;3.17;;;1.60;;
23123;SDS011;11731;48.592;8.858;2024-02-26T12:55:16;1.40;;;1.10;;
23123;SDS011;11731;48.592;8.858;2024-02-26T12:57:45;2.40;;;1.27;;
23123;SDS011;11731;48.592;8.858;2024-02-26T13:00:15;1.30;;;1.00;;
23123;SDS011;11731;48.592;8.858;2024-02-26T13:02:47;0.90;;;0.90;;
23123;SDS011;11731;48.592;8.858;2024-02-26T13:05:15;1.20;;;1.10;;
23123;SDS011;11731;48.592;8.858;2024-02-26T13:07:46;1.20;;;1.10;;
23123;SDS011;11731;48.592;8.858;2024-02-26T13:10:15;1.37;;;1.27;;
23123;SDS011;11731;48.592;8.858;2024-02-26T13:12:43;1.93;;;1.17;;
23123;SDS011;11731;48.592;8.858;2024-02-26T13:15:14;2.60;;;1.00;;
23123;SDS011;11731;48.592;8.858;2024-02-26T13:17:42;1.63;;;1.53;;
23123;SDS011;11731;48.592;8.858;2024-02-26T13:20:09;1.70;;;1.33;;
23123;SDS011;11731;48.592;8.858;2024-02-26T13:22:37;1.10;;;0.90;;
23123;SDS011;11731;48.592;8.858;2024-02-26T13:25:07;1.20;;;1.10;;
23123;SDS011;11731;48.592;8.858;2024-02-26T13:27:34;1.10;;;1.00;;
23123;SDS011;11731;48.592;8.858;2024-02-26T13:30:02;1.23;;;1.00;;
23123;SDS011;11731;48.592;8.858;2024-02-26T13:32:31;0.70;;;0.70;;
23123;SDS011;11731;48.592;8.858;2024-02-26T13:35:07;2.63;;;0.83;;
23123;SDS011;11731;48.592;8.858;2024-02-26T13:37:35;0.70;;;0.70;;
23123;SDS011;11731;48.592;8.858;2024-02-26T13:40:08;1.37;;;0.60;;
23123;SDS011;11731;48.592;8.858;2024-02-26T13:42:37;0.80;;;0.60;;
23123;SDS011;11731;48.592;8.858;2024-02-26T13:45:05;1.27;;;0.60;;
23123;SDS011;11731;48.592;8.858;2024-02-26T13:47:32;1.13;;;0.70;;
23123;SDS011;11731;48.592;8.858;2024-02-26T13:50:00;0.97;;;0.70;;
23123;SDS011;11731;48.592;8.858;2024-02-26T13:52:27;1.03;;;0.60;;
23123;SDS011;11731;48.592;8.858;2024-02-26T13:54:57;0.50;;;0.50;;
23123;SDS011;11731;48.592;8.858;2024-02-26T13:57:26;0.50;;;0.50;;
23123;SDS011;11731;48.592;8.858;2024-02-26T13:59:56;0.50;;;0.50;;
23123;SDS011;11731;48.592;8.858;2024-02-26T14:02:23;0.70;;;0.60;;
23123;SDS011;11731;48.592;8.858;2024-02-26T14:04:50;1.83;;;1.00;;
23123;SDS011;11731;48.592;8.858;2024-02-26T14:07:18;1.00;;;0.73;;
23123;SDS011;11731;48.592;8.858;2024-02-26T14:15:50;1.47;;;0.90;;
23123;SDS011;11731;48.592;8.858;2024-02-26T14:18:54;1.60;;;0.57;;
23123;SDS011;11731;48.592;8.858;2024-02-26T14:26:10;0.77;;;0.50;;
23123;SDS011;11731;48.592;8.858;2024-02-26T14:28:30;0.40;;;0.40;;
23123;SDS011;11731;48.592;8.858;2024-02-26T14:31:00;0.43;;;0.43;;
23123;SDS011;11731;48.592;8.858;2024-02-26T14:33:34;1.60;;;0.37;;
23123;SDS011;11731;48.592;8.858;2024-02-26T14:37:11;0.37;;;0.33;;
23123;SDS011;11731;48.592;8.858;2024-02-26T14:59:30;0.40;;;0.40;;
23123;SDS011;11731;48.592;8.858;2024-02-26T15:02:16;0.40;;;0.40;;
23123;SDS011;11731;48.592;8.858;2024-02-26T15:05:27;0.80;;;0.50;;
23123;SDS011;11731;48.592;8.858;2024-02-26T15:11:37;0.43;;;0.40;;
23123;SDS011;11731;48.592;8.858;2024-02-26T15:14:09;2.07;;;0.50;;
23123;SDS011;11731;48.592;8.858;2024-02-26T15:23:11;3.90;;;0.90;;
23123;SDS011;11731;48.592;8.858;2024-02-26T15:26:19;1.13;;;0.50;;
23123;SDS011;11731;48.592;8.858;2024-02-26T15:28:54;0.30;;;0.30;;
23123;SDS011;11731;48.592;8.858;2024-02-26T15:31:29;1.23;;;0.80;;
23123;SDS011;11731;48.592;8.858;2024-02-26T16:22:06;1.77;;;1.20;;
23123;SDS011;11731;48.592;8.858;2024-02-26T16:25:00;1.27;;;0.70;;
23123;SDS011;11731;48.592;8.858;2024-02-26T16:31:29;0.77;;;0.77;;
23123;SDS011;11731;48.592;8.858;2024-02-26T16:33:56;2.43;;;0.90;;
23123;SDS011;11731;48.592;8.858;2024-02-26T16:36:47;1.03;;;0.90;;
23123;SDS011;11731;48.592;8.858;2024-02-26T16:43:47;1.43;;;0.90;;
23123;SDS011;11731;48.592;8.858;2024-02-26T16:46:06;1.73;;;1.10;;
23123;SDS011;11731;48.592;8.858;2024-02-26T16:48:33;2.60;;;1.33;;
23123;SDS011;11731;48.592;8.858;2024-02-26T16:51:01;1.93;;;1.00;;
23123;SDS011;11731;48.592;8.858;2024-02-26T16:53:28;1.53;;;1.20;;
23123;SDS011;11731;48.592;8.858;2024-02-26T16:55:56;1.40;;;1.00;;
23123;SDS011;11731;48.592;8.858;2024-02-26T16:58:26;3.33;;;1.33;;
23123;SDS011;11731;48.592;8.858;2024-02-26T17:00:54;1.90;;;0.90;;
23123;SDS011;11731;48.592;8.858;2024-02-26T17:03:20;1.13;;;1.03;;
23123;SDS011;11731;48.592;8.858;2024-02-26T17:05:47;1.87;;;1.10;;
23123;SDS011;11731;48.592;8.858;2024-02-26T17:08:15;1.83;;;1.27;;
23123;SDS011;11731;48.592;8.858;2024-02-26T17:10:42;2.50;;;1.37;;
23123;SDS011;11731;48.592;8.858;2024-02-26T17:13:10;2.77;;;1.40;;
23123;SDS011;11731;48.592;8.858;2024-02-26T17:15:37;2.43;;;1.40;;
23123;SDS011;11731;48.592;8.858;2024-02-26T17:18:05;1.60;;;1.27;;
23123;SDS011;11731;48.592;8.858;2024-02-26T17:20:37;1.57;;;1.13;;
23123;SDS011;11731;48.592;8.858;2024-02-26T17:23:04;1.87;;;1.30;;
23123;SDS011;11731;48.592;8.858;2024-02-26T17:25:31;3.27;;;1.33;;
23123;SDS011;11731;48.592;8.858;2024-02-26T17:27:58;1.43;;;1.13;;
23123;SDS011;11731;48.592;8.858;2024-02-26T17:30:27;6.53;;;1.73;;
23123;SDS011;11731;48.592;8.858;2024-02-26T17:32:53;1.40;;;1.30;;
23123;SDS011;11731;48.592;8.858;2024-02-26T17:35:20;1.83;;;1.10;;
23123;SDS011;11731;48.592;8.858;2024-02-26T17:37:47;1.20;;;1.10;;
23123;SDS011;11731;48.592;8.858;2024-02-26T17:40:14;3.10;;;1.50;;
23123;SDS011;11731;48.592;8.858;2024-02-26T17:42:42;5.03;;;1.70;;
23123;SDS011;11731;48.592;8.858;2024-02-26T17:45:09;2.77;;;1.60;;
23123;SDS011;11731;48.592;8.858;2024-02-26T17:47:38;2.33;;;1.40;;
23123;SDS011;11731;48.592;8.858;2024-02-26T17:50:05;2.40;;;1.77;;
23123;SDS011;11731;48.592;8.858;2024-02-26T17:52:33;2.07;;;1.50;;
23123;SDS011;11731;48.592;8.858;2024-02-26T17:55:01;3.87;;;1.50;;
23123;SDS011;11731;48.592;8.858;2024-02-26T17:57:28;3.40;;;2.13;;
23123;SDS011;11731;48.592;8.858;2024-02-26T17:59:55;2.83;;;2.03;;
23123;SDS011;11731;48.592;8.858;2024-02-26T18:02:22;3.60;;;1.67;;
23123;SDS011;11731;48.592;8.858;2024-02-26T18:04:51;2.30;;;1.77;;
23123;SDS011;11731;48.592;8.858;2024-02-26T18:07:18;2.93;;;1.80;;
23123;SDS011;11731;48.592;8.858;2024-02-26T18:09:45;1.90;;;1.70;;
23123;SDS011;11731;48.592;8.858;2024-02-26T18:12:12;2.20;;;1.80;;
23123;SDS011;11731;48.592;8.858;2024-02-26T18:14:38;2.23;;;1.60;;
23123;SDS011;11731;48.592;8.858;2024-02-26T18:17:05;2.80;;;1.97;;
23123;SDS011;11731;48.592;8.858;2024-02-26T18:19:32;2.63;;;1.80;;
23123;SDS011;11731;48.592;8.858;2024-02-26T18:22:01;4.70;;;1.80;;
23123;SDS011;11731;48.592;8.858;2024-02-26T18:24:29;2.60;;;2.03;;
23123;SDS011;11731;48.592;8.858;2024-02-26T18:26:56;2.53;;;1.67;;
23123;SDS011;11731;48.592;8.858;2024-02-26T18:29:23;2.53;;;2.00;;
23123;SDS011;11731;48.592;8.858;2024-02-26T18:31:50;2.60;;;1.70;;
23123;SDS011;11731;48.592;8.858;2024-02-26T18:34:17;2.63;;;1.80;;
23123;SDS011;11731;48.592;8.858;2024-02-26T18:36:44;3.60;;;1.90;;
23123;SDS011;11731;48.592;8.858;2024-02-26T18:39:13;3.00;;;2.07;;
23123;SDS011;11731;48.592;8.858;2024-02-26T18:41:40;2.57;;;2.00;;
23123;SDS011;11731;48.592;8.858;2024-02-26T18:44:07;2.27;;;1.70;;
23123;SDS011;11731;48.592;8.858;2024-02-26T18:46:34;2.53;;;1.60;;
23123;SDS011;11731;48.592;8.858;2024-02-26T18:49:09;2.07;;;1.80;;
23123;SDS011;11731;48.592;8.858;2024-02-26T18:51:36;2.40;;;1.87;;
23123;SDS011;11731;48.592;8.858;2024-02-26T18:54:03;2.40;;;1.70;;
23123;SDS011;11731;48.592;8.858;2024-02-26T18:56:32;3.67;;;2.57;;
23123;SDS011;11731;48.592;8.858;2024-02-26T18:58:59;3.37;;;2.10;;
23123;SDS011;11731;48.592;8.858;2024-02-26T19:01:26;3.77;;;2.40;;
23123;SDS011;11731;48.592;8.858;2024-02-26T19:03:53;3.77;;;2.50;;
23123;SDS011;11731;48.592;8.858;2024-02-26T19:06:20;3.17;;;2.30;;